Latest Weather Observations for West Roebuck

IDW60801

Issued at 2:35 am WST Thursday 28 August 2014 (issued every 30 minutes, with the page automatically refreshed every 10 minutes)

About weather observations | Map of weather stations | Latest weather observations for WA | Other Formats
Station Details ID: 003096 Name: WEST ROEBUCK Lat: -17.90 Lon: 122.31 Height: 32.0 m
Data from the previous 72 hours. | See also: Recent months for locations in Western Australia
Date/Time
WST
Temp
°C
App
Temp
°C
Dew
Point
Rel
Hum
%
Delta-T
°C
Wind Press
QNH
hPa
Press
MSL
hPa
Rain
since 9 am
mm
Dir
 
Spd
km/h
Gust
km/h
Spd
kts
Gust
kts
28/02:30am 13.0 - - - - E 11 13 6 7 - - 0.0
28/02:00am 13.8 - - - - SE 9 11 5 6 - - 0.0
28/01:30am 15.2 - - - - SSE 9 13 5 7 - - 0.0
28/01:00am 14.6 - - - - SSE 9 11 5 6 - - 0.0
28/12:30am 15.9 - - - - SSW 11 13 6 7 - - 0.0
28/12:00am 14.9 - - - - SSW 9 11 5 6 - - 0.0
 
Date/Time
WST
Temp
°C
App
Temp
°C
Dew
Point
Rel
Hum
%
Delta-T
°C
Wind Press
QNH
hPa
Press
MSL
hPa
Rain
since 9 am
mm
Dir
 
Spd
km/h
Gust
km/h
Spd
kts
Gust
kts
27/11:30pm 15.0 - - - - S 7 9 4 5 - - 0.0
27/11:00pm 15.3 - - - - S 6 6 3 3 - - 0.0
27/10:30pm 15.2 - - - - S 7 9 4 5 - - 0.0
27/10:00pm 15.8 - - - - S 7 7 4 4 - - 0.0
27/09:30pm 16.2 - - - - S 7 9 4 5 - - 0.0
27/09:00pm 15.9 - - - - W 6 6 3 3 - - 0.0
27/08:30pm 17.8 - - - - WSW 9 11 5 6 - - 0.0
27/08:00pm 17.4 - - - - W 9 11 5 6 - - 0.0
27/07:30pm 18.5 - - - - W 11 11 6 6 - - 0.0
27/07:00pm 19.8 - - - - WNW 9 9 5 5 - - 0.0
27/06:30pm 21.4 - - - - NW 13 15 7 8 - - 0.0
27/06:00pm 22.7 - - - - NW 13 15 7 8 - - 0.0
27/05:30pm 24.7 - - - - NW 13 17 7 9 - - 0.0
27/05:00pm 26.5 - - - - NW 13 20 7 11 - - 0.0
27/04:30pm 27.5 - - - - WNW 17 22 9 12 - - 0.0
27/04:00pm 28.3 - - - - WNW 17 24 9 13 - - 0.0
27/03:30pm 29.1 - - - - WNW 20 28 11 15 - - 0.0
27/03:00pm 29.4 - - - - WNW 22 30 12 16 - - 0.0
27/02:30pm 30.2 - - - - NW 20 26 11 14 - - 0.0
27/02:00pm 32.6 - - - - E 19 30 10 16 - - 0.0
27/01:30pm 32.5 - - - - ESE 19 26 10 14 - - 0.0
27/01:00pm 32.4 - - - - E 15 30 8 16 - - 0.0
27/12:30pm 31.8 - - - - ESE 13 22 7 12 - - 0.0
27/12:00pm 31.9 - - - - E 20 32 11 17 - - 0.0
27/11:30am 31.5 - - - - ENE 19 37 10 20 - - 0.0
27/11:00am 31.8 - - - - E 19 28 10 15 - - 0.0
27/10:30am 29.9 - - - - ENE 20 32 11 17 - - 0.0
27/10:00am 28.4 - - - - ENE 22 33 12 18 - - 0.0
27/09:30am 27.5 - - - - ENE 22 30 12 16 - - 0.0
27/09:00am 25.5 - - - - ENE 19 30 10 16 - - 0.0
27/08:30am 24.0 - - - - ENE 15 24 8 13 - - 0.0
27/08:00am 21.5 - - - - E 15 20 8 11 - - 0.0
27/07:30am 19.7 - - - - E 15 22 8 12 - - 0.0
27/07:00am 17.9 - - - - ENE 13 20 7 11 - - 0.0
27/06:30am 15.8 - - - - ENE 15 19 8 10 - - 0.0
27/06:00am 13.9 - - - - ENE 13 17 7 9 - - 0.0
27/05:30am 12.7 - - - - ENE 13 15 7 8 - - 0.0
27/05:00am 12.2 - - - - ENE 11 15 6 8 - - 0.0
27/04:30am 12.9 - - - - E 11 13 6 7 - - 0.0
27/04:00am 13.6 - - - - E 11 13 6 7 - - 0.0
27/03:30am 13.9 - - - - ENE 11 13 6 7 - - 0.0
27/03:00am 14.3 - - - - ENE 11 15 6 8 - - 0.0
27/02:30am 14.3 - - - - ENE 11 13 6 7 - - 0.0
27/02:00am 14.4 - - - - E 7 9 4 5 - - 0.0
27/01:30am 14.1 - - - - CALM 0 0 0 0 - - 0.0
27/01:00am 13.8 - - - - CALM 0 0 0 0 - - 0.0
27/12:30am 14.4 - - - - CALM 0 0 0 0 - - 0.0
27/12:00am 14.6 - - - - CALM 0 0 0 0 - - 0.0
 
Date/Time
WST
Temp
°C
App
Temp
°C
Dew
Point
Rel
Hum
%
Delta-T
°C
Wind Press
QNH
hPa
Press
MSL
hPa
Rain
since 9 am
mm
Dir
 
Spd
km/h
Gust
km/h
Spd
kts
Gust
kts
26/11:30pm 14.3 - - - - WNW 6 9 3 5 - - 0.0
26/11:00pm 14.7 - - - - W 6 7 3 4 - - 0.0
26/10:30pm 15.7 - - - - WNW 6 7 3 4 - - 0.0
26/10:00pm 15.8 - - - - NW 7 9 4 5 - - 0.0
26/09:30pm 15.7 - - - - WSW 6 7 3 4 - - 0.0
26/09:00pm 16.2 - - - - W 7 9 4 5 - - 0.0
26/08:30pm 17.6 - - - - W 7 9 4 5 - - 0.0
26/08:00pm 17.6 - - - - W 7 9 4 5 - - 0.0
26/07:30pm 19.0 - - - - W 9 11 5 6 - - 0.0
26/07:00pm 20.0 - - - - NW 9 9 5 5 - - 0.0
26/06:30pm 19.6 - - - - WNW 9 13 5 7 - - 0.0
26/06:00pm 22.0 - - - - WNW 11 13 6 7 - - 0.0
26/05:30pm 24.3 - - - - WNW 9 13 5 7 - - 0.0
26/05:00pm 26.8 - - - - WNW 15 20 8 11 - - 0.0
26/04:30pm 27.9 - - - - WNW 15 22 8 12 - - 0.0
26/04:00pm 31.8 - - - - NE 13 19 7 10 - - 0.0
26/03:30pm 32.9 - - - - SE 15 22 8 12 - - 0.0
26/03:00pm 33.1 - - - - E 11 24 6 13 - - 0.0
26/02:30pm 32.7 - - - - SE 13 22 7 12 - - 0.0
26/02:00pm 32.8 - - - - E 11 19 6 10 - - 0.0
26/01:30pm 32.6 - - - - E 17 24 9 13 - - 0.0
26/01:00pm 32.4 - - - - ESE 19 24 10 13 - - 0.0
26/12:30pm 32.4 - - - - ENE 13 24 7 13 - - 0.0
26/12:00pm 32.2 - - - - E 17 26 9 14 - - 0.0
26/11:30am 31.5 - - - - E 22 32 12 17 - - 0.0
26/11:00am 30.5 - - - - ENE 20 30 11 16 - - 0.0
26/10:30am 29.5 - - - - ENE 24 39 13 21 - - 0.0
26/10:00am 28.3 - - - - ENE 19 30 10 16 - - 0.0
26/09:30am 26.6 - - - - NE 17 24 9 13 - - 0.0
26/09:00am 25.7 - - - - E 24 33 13 18 - - 0.0
26/08:30am 24.9 - - - - E 19 26 10 14 - - 0.0
26/08:00am 23.0 - - - - E 15 22 8 12 - - 0.0
26/07:30am 20.2 - - - - ENE 11 19 6 10 - - 0.0
26/07:00am 18.0 - - - - NE 11 17 6 9 - - 0.0
26/06:30am 16.7 - - - - ENE 11 15 6 8 - - 0.0
26/06:00am 16.9 - - - - E 13 17 7 9 - - 0.0
26/05:30am 17.3 - - - - ENE 13 20 7 11 - - 0.0
26/05:00am 17.4 - - - - ENE 15 19 8 10 - - 0.0
26/04:30am 17.9 - - - - ENE 13 19 7 10 - - 0.0
26/04:00am 17.5 - - - - ENE 13 19 7 10 - - 0.0
26/03:30am 15.1 - - - - ENE 13 17 7 9 - - 0.0
26/03:00am 14.2 - - - - ENE 11 13 6 7 - - 0.0
26/02:30am 13.4 - - - - E 11 13 6 7 - - 0.0
26/02:00am 13.3 - - - - E 11 13 6 7 - - 0.0
26/01:30am 13.3 - - - - E 11 13 6 7 - - 0.0
26/01:00am 13.8 - - - - E 11 13 6 7 - - 0.0
26/12:30am 14.5 - - - - ESE 11 13 6 7 - - 0.0
26/12:00am 15.2 - - - - ESE 11 13 6 7 - - 0.0
 
Date/Time
WST
Temp
°C
App
Temp
°C
Dew
Point
Rel
Hum
%
Delta-T
°C
Wind Press
QNH
hPa
Press
MSL
hPa
Rain
since 9 am
mm
Dir
 
Spd
km/h
Gust
km/h
Spd
kts
Gust
kts
25/11:30pm 15.8 - - - - ESE 11 13 6 7 - - 0.0
25/11:00pm 17.0 - - - - ESE 13 15 7 8 - - 0.0
25/10:30pm 17.4 - - - - ESE 13 15 7 8 - - 0.0
25/10:00pm 17.4 - - - - ESE 11 13 6 7 - - 0.0
25/09:30pm 17.4 - - - - ESE 11 13 6 7 - - 0.0
25/09:00pm 18.6 - - - - E 7 9 4 5 - - 0.0
25/08:30pm 19.7 - - - - ESE 9 13 5 7 - - 0.0
25/08:00pm 20.4 - - - - E 7 9 4 5 - - 0.0
25/07:30pm 19.9 - - - - E 7 11 4 6 - - 0.0
25/07:00pm 21.1 - - - - CALM 0 0 0 0 - - 0.0
25/06:30pm 22.5 - - - - E 6 7 3 4 - - 0.0
25/06:00pm 24.9 - - - - ESE 9 11 5 6 - - 0.0
25/05:30pm 27.6 - - - - ESE 11 19 6 10 - - 0.0
25/05:00pm 29.9 - - - - ESE 15 24 8 13 - - 0.0
25/04:30pm 30.8 - - - - ESE 17 28 9 15 - - 0.0
25/04:00pm 31.4 - - - - ESE 20 32 11 17 - - 0.0
25/03:30pm 32.5 - - - - E 20 32 11 17 - - 0.0
25/03:00pm 32.6 - - - - E 20 35 11 19 - - 0.0
25/02:30pm 32.7 - - - - E 20 30 11 16 - - 0.0
25/02:00pm 33.4 - - - - E 22 32 12 17 - - 0.0
25/01:30pm 32.6 - - - - E 20 35 11 19 - - 0.0
25/01:00pm 32.3 - - - - ENE 26 41 14 22 - - 0.0
25/12:30pm 32.2 - - - - ENE 22 33 12 18 - - 0.0
25/12:00pm 32.1 - - - - E 24 37 13 20 - - 0.0
25/11:30am 32.8 - - - - ENE 24 41 13 22 - - 0.0
25/11:00am 32.8 - - - - E 28 44 15 24 - - 0.0
25/10:34am 31.9 - - - - E 30 48 16 26 - - 0.0
25/10:30am 31.3 - - - - E 28 44 15 24 - - 0.0
25/10:00am 30.9 - - - - E 26 41 14 22 - - 0.0
25/09:31am 29.4 - - - - ENE 28 46 15 25 - - 0.0
25/09:30am 29.7 - - - - ENE 26 41 14 22 - - 0.0
25/09:00am 28.7 - - - - E 28 44 15 24 - - 0.0
25/08:30am 26.4 - - - - E 19 28 10 15 - - 0.0
25/08:00am 23.2 - - - - E 17 24 9 13 - - 0.0
25/07:30am 20.7 - - - - E 13 20 7 11 - - 0.0
25/07:00am 18.2 - - - - ENE 11 15 6 8 - - 0.0
25/06:30am 16.2 - - - - ENE 11 15 6 8 - - 0.0
25/06:00am 15.3 - - - - ENE 13 15 7 8 - - 0.0
25/05:30am 13.7 - - - - ENE 11 13 6 7 - - 0.0
25/05:00am 14.1 - - - - ENE 9 11 5 6 - - 0.0
25/04:30am 14.9 - - - - ENE 11 13 6 7 - - 0.0
25/04:00am 14.6 - - - - ENE 11 13 6 7 - - 0.0
25/03:30am 14.0 - - - - ENE 11 13 6 7 - - 0.0
25/03:00am 13.7 - - - - ENE 11 13 6 7 - - 0.0

Other Formats:

Comma delimited format used in spreadsheet applications
http://www.bom.gov.au/fwo/IDW60801/IDW60801.95204.axf

JavaScript Object Notation format (JSON) in row-major order
http://www.bom.gov.au/fwo/IDW60801/IDW60801.95204.json